sensor_id;sensor_type;location;lat;lon;timestamp;P1;durP1;ratioP1;P2;durP2;ratioP2
38859;SDS011;24609;48.316;16.174;2022-07-29T00:02:11;5.82;;;4.07;;
38859;SDS011;24609;48.316;16.174;2022-07-29T00:04:37;7.10;;;5.05;;
38859;SDS011;24609;48.316;16.174;2022-07-29T00:07:03;5.40;;;4.90;;
38859;SDS011;24609;48.316;16.174;2022-07-29T00:09:29;4.78;;;4.32;;
38859;SDS011;24609;48.316;16.174;2022-07-29T00:11:56;4.90;;;4.43;;
38859;SDS011;24609;48.316;16.174;2022-07-29T00:16:51;5.63;;;4.35;;
38859;SDS011;24609;48.316;16.174;2022-07-29T00:19:16;4.55;;;3.88;;
38859;SDS011;24609;48.316;16.174;2022-07-29T00:21:42;4.55;;;4.15;;
38859;SDS011;24609;48.316;16.174;2022-07-29T00:24:08;4.32;;;3.88;;
38859;SDS011;24609;48.316;16.174;2022-07-29T00:26:34;6.45;;;4.65;;
38859;SDS011;24609;48.316;16.174;2022-07-29T00:29:00;5.88;;;4.75;;
38859;SDS011;24609;48.316;16.174;2022-07-29T00:31:27;4.78;;;4.20;;
38859;SDS011;24609;48.316;16.174;2022-07-29T00:33:54;5.78;;;5.00;;
38859;SDS011;24609;48.316;16.174;2022-07-29T00:36:20;4.68;;;4.28;;
38859;SDS011;24609;48.316;16.174;2022-07-29T00:38:49;5.38;;;4.40;;
38859;SDS011;24609;48.316;16.174;2022-07-29T00:41:16;4.25;;;3.85;;
38859;SDS011;24609;48.316;16.174;2022-07-29T00:43:43;5.90;;;5.30;;
38859;SDS011;24609;48.316;16.174;2022-07-29T00:46:09;4.43;;;4.03;;
38859;SDS011;24609;48.316;16.174;2022-07-29T00:48:35;5.13;;;4.40;;
38859;SDS011;24609;48.316;16.174;2022-07-29T00:51:02;5.47;;;4.85;;
38859;SDS011;24609;48.316;16.174;2022-07-29T00:53:29;5.43;;;4.93;;
38859;SDS011;24609;48.316;16.174;2022-07-29T00:55:55;4.90;;;4.30;;
38859;SDS011;24609;48.316;16.174;2022-07-29T00:58:21;5.78;;;4.88;;
38859;SDS011;24609;48.316;16.174;2022-07-29T01:00:48;5.18;;;4.68;;
38859;SDS011;24609;48.316;16.174;2022-07-29T01:03:14;5.85;;;4.85;;
38859;SDS011;24609;48.316;16.174;2022-07-29T01:05:40;6.75;;;5.22;;
38859;SDS011;24609;48.316;16.174;2022-07-29T01:08:08;6.22;;;4.93;;
38859;SDS011;24609;48.316;16.174;2022-07-29T01:10:35;5.25;;;4.72;;
38859;SDS011;24609;48.316;16.174;2022-07-29T01:13:02;5.05;;;4.22;;
38859;SDS011;24609;48.316;16.174;2022-07-29T01:15:28;5.82;;;4.25;;
38859;SDS011;24609;48.316;16.174;2022-07-29T01:31:45;7.82;;;6.10;;
38859;SDS011;24609;48.316;16.174;2022-07-29T01:34:41;8.40;;;6.13;;
38859;SDS011;24609;48.316;16.174;2022-07-29T01:37:13;8.20;;;5.82;;
38859;SDS011;24609;48.316;16.174;2022-07-29T01:39:46;7.15;;;5.22;;
38859;SDS011;24609;48.316;16.174;2022-07-29T01:42:15;5.05;;;4.55;;
38859;SDS011;24609;48.316;16.174;2022-07-29T01:50:56;8.68;;;7.35;;
38859;SDS011;24609;48.316;16.174;2022-07-29T01:53:36;7.20;;;5.90;;
38859;SDS011;24609;48.316;16.174;2022-07-29T01:56:07;7.55;;;6.78;;
38859;SDS011;24609;48.316;16.174;2022-07-29T01:58:35;6.03;;;5.53;;
38859;SDS011;24609;48.316;16.174;2022-07-29T02:01:05;6.15;;;5.55;;
38859;SDS011;24609;48.316;16.174;2022-07-29T02:03:33;7.00;;;5.90;;
38859;SDS011;24609;48.316;16.174;2022-07-29T02:06:01;7.47;;;6.13;;
38859;SDS011;24609;48.316;16.174;2022-07-29T02:08:29;6.25;;;5.65;;
38859;SDS011;24609;48.316;16.174;2022-07-29T02:10:57;8.05;;;6.88;;
38859;SDS011;24609;48.316;16.174;2022-07-29T02:13:24;6.78;;;6.13;;
38859;SDS011;24609;48.316;16.174;2022-07-29T02:15:52;7.47;;;6.60;;
38859;SDS011;24609;48.316;16.174;2022-07-29T02:18:20;7.18;;;6.43;;
38859;SDS011;24609;48.316;16.174;2022-07-29T02:20:49;7.30;;;6.10;;
38859;SDS011;24609;48.316;16.174;2022-07-29T02:25:44;6.05;;;5.55;;
38859;SDS011;24609;48.316;16.174;2022-07-29T02:28:16;6.43;;;5.57;;
38859;SDS011;24609;48.316;16.174;2022-07-29T02:30:43;6.80;;;5.82;;
38859;SDS011;24609;48.316;16.174;2022-07-29T02:33:12;7.53;;;6.00;;
38859;SDS011;24609;48.316;16.174;2022-07-29T02:35:39;5.85;;;5.35;;
38859;SDS011;24609;48.316;16.174;2022-07-29T02:38:07;5.60;;;5.10;;
38859;SDS011;24609;48.316;16.174;2022-07-29T02:40:55;8.95;;;6.10;;
38859;SDS011;24609;48.316;16.174;2022-07-29T02:43:23;7.03;;;6.40;;
38859;SDS011;24609;48.316;16.174;2022-07-29T02:45:51;7.95;;;6.97;;
38859;SDS011;24609;48.316;16.174;2022-07-29T02:48:20;7.55;;;6.85;;
38859;SDS011;24609;48.316;16.174;2022-07-29T02:50:53;7.78;;;7.07;;
38859;SDS011;24609;48.316;16.174;2022-07-29T02:53:26;9.70;;;6.03;;
38859;SDS011;24609;48.316;16.174;2022-07-29T02:58:28;8.18;;;7.38;;
38859;SDS011;24609;48.316;16.174;2022-07-29T03:01:02;7.57;;;6.32;;
38859;SDS011;24609;48.316;16.174;2022-07-29T03:03:31;8.90;;;8.00;;
38859;SDS011;24609;48.316;16.174;2022-07-29T03:05:59;8.73;;;7.15;;
38859;SDS011;24609;48.316;16.174;2022-07-29T03:08:27;8.35;;;7.18;;
38859;SDS011;24609;48.316;16.174;2022-07-29T03:10:53;11.77;;;5.75;;
38859;SDS011;24609;48.316;16.174;2022-07-29T03:13:20;8.15;;;6.95;;
38859;SDS011;24609;48.316;16.174;2022-07-29T03:15:46;7.40;;;6.70;;
38859;SDS011;24609;48.316;16.174;2022-07-29T03:18:12;7.32;;;6.63;;
38859;SDS011;24609;48.316;16.174;2022-07-29T03:20:39;9.77;;;6.82;;
38859;SDS011;24609;48.316;16.174;2022-07-29T03:23:05;8.70;;;7.13;;
38859;SDS011;24609;48.316;16.174;2022-07-29T03:25:32;7.28;;;6.45;;
38859;SDS011;24609;48.316;16.174;2022-07-29T03:27:58;6.57;;;5.85;;
38859;SDS011;24609;48.316;16.174;2022-07-29T03:30:24;7.50;;;6.70;;
38859;SDS011;24609;48.316;16.174;2022-07-29T03:32:50;7.00;;;6.30;;
38859;SDS011;24609;48.316;16.174;2022-07-29T03:35:17;7.90;;;7.10;;
38859;SDS011;24609;48.316;16.174;2022-07-29T03:37:43;9.48;;;7.88;;
38859;SDS011;24609;48.316;16.174;2022-07-29T03:40:09;10.10;;;7.68;;
38859;SDS011;24609;48.316;16.174;2022-07-29T03:45:06;9.27;;;7.45;;
38859;SDS011;24609;48.316;16.174;2022-07-29T03:47:35;8.30;;;7.53;;
38859;SDS011;24609;48.316;16.174;2022-07-29T03:50:06;9.23;;;7.47;;
38859;SDS011;24609;48.316;16.174;2022-07-29T03:52:33;8.52;;;7.68;;
38859;SDS011;24609;48.316;16.174;2022-07-29T03:55:00;7.43;;;6.43;;
38859;SDS011;24609;48.316;16.174;2022-07-29T03:57:27;6.93;;;6.32;;
38859;SDS011;24609;48.316;16.174;2022-07-29T03:59:55;7.38;;;6.63;;
38859;SDS011;24609;48.316;16.174;2022-07-29T04:02:21;9.43;;;7.32;;
38859;SDS011;24609;48.316;16.174;2022-07-29T04:04:48;9.80;;;7.72;;
38859;SDS011;24609;48.316;16.174;2022-07-29T04:07:14;9.10;;;7.20;;
38859;SDS011;24609;48.316;16.174;2022-07-29T04:09:40;7.57;;;6.88;;
38859;SDS011;24609;48.316;16.174;2022-07-29T04:12:07;9.45;;;7.80;;
38859;SDS011;24609;48.316;16.174;2022-07-29T04:14:33;7.68;;;6.97;;
38859;SDS011;24609;48.316;16.174;2022-07-29T04:17:00;8.82;;;6.70;;
38859;SDS011;24609;48.316;16.174;2022-07-29T04:19:26;7.50;;;6.80;;
38859;SDS011;24609;48.316;16.174;2022-07-29T04:21:52;7.45;;;6.63;;
38859;SDS011;24609;48.316;16.174;2022-07-29T04:24:18;9.15;;;7.78;;
38859;SDS011;24609;48.316;16.174;2022-07-29T04:26:45;7.72;;;6.00;;
38859;SDS011;24609;48.316;16.174;2022-07-29T04:29:11;10.60;;;7.70;;
38859;SDS011;24609;48.316;16.174;2022-07-29T04:31:39;8.32;;;7.30;;
38859;SDS011;24609;48.316;16.174;2022-07-29T04:34:08;8.75;;;7.88;;
38859;SDS011;24609;48.316;16.174;2022-07-29T04:36:35;7.78;;;6.68;;
38859;SDS011;24609;48.316;16.174;2022-07-29T04:39:00;7.78;;;6.97;;
38859;SDS011;24609;48.316;16.174;2022-07-29T04:41:27;8.68;;;6.75;;
38859;SDS011;24609;48.316;16.174;2022-07-29T04:43:53;8.88;;;7.97;;
38859;SDS011;24609;48.316;16.174;2022-07-29T04:46:19;9.23;;;7.90;;
38859;SDS011;24609;48.316;16.174;2022-07-29T04:48:45;7.60;;;6.82;;
38859;SDS011;24609;48.316;16.174;2022-07-29T04:51:12;10.35;;;7.90;;
38859;SDS011;24609;48.316;16.174;2022-07-29T04:53:38;8.70;;;6.95;;
38859;SDS011;24609;48.316;16.174;2022-07-29T04:56:04;8.52;;;7.00;;
38859;SDS011;24609;48.316;16.174;2022-07-29T04:58:30;9.32;;;7.50;;
38859;SDS011;24609;48.316;16.174;2022-07-29T05:00:56;8.55;;;7.10;;
38859;SDS011;24609;48.316;16.174;2022-07-29T05:03:22;10.23;;;6.93;;
38859;SDS011;24609;48.316;16.174;2022-07-29T05:05:47;6.93;;;5.72;;
38859;SDS011;24609;48.316;16.174;2022-07-29T05:08:13;8.85;;;6.80;;
38859;SDS011;24609;48.316;16.174;2022-07-29T05:10:39;8.82;;;6.95;;
38859;SDS011;24609;48.316;16.174;2022-07-29T05:13:05;7.05;;;6.35;;
38859;SDS011;24609;48.316;16.174;2022-07-29T05:15:32;9.30;;;6.28;;
38859;SDS011;24609;48.316;16.174;2022-07-29T05:17:58;6.78;;;5.70;;
38859;SDS011;24609;48.316;16.174;2022-07-29T05:20:24;6.47;;;5.88;;
38859;SDS011;24609;48.316;16.174;2022-07-29T05:22:53;6.72;;;5.90;;
38859;SDS011;24609;48.316;16.174;2022-07-29T05:25:23;7.88;;;5.90;;
38859;SDS011;24609;48.316;16.174;2022-07-29T05:27:49;8.15;;;6.05;;
38859;SDS011;24609;48.316;16.174;2022-07-29T05:30:15;6.70;;;5.78;;
38859;SDS011;24609;48.316;16.174;2022-07-29T05:32:41;7.43;;;6.65;;
38859;SDS011;24609;48.316;16.174;2022-07-29T05:35:07;7.18;;;5.72;;
38859;SDS011;24609;48.316;16.174;2022-07-29T05:37:33;7.68;;;6.88;;
38859;SDS011;24609;48.316;16.174;2022-07-29T05:39:59;7.82;;;6.22;;
38859;SDS011;24609;48.316;16.174;2022-07-29T05:42:25;5.40;;;4.90;;
38859;SDS011;24609;48.316;16.174;2022-07-29T05:44:51;6.93;;;4.45;;
38859;SDS011;24609;48.316;16.174;2022-07-29T05:47:17;6.30;;;4.72;;
38859;SDS011;24609;48.316;16.174;2022-07-29T05:49:43;7.60;;;5.93;;
38859;SDS011;24609;48.316;16.174;2022-07-29T05:52:09;5.70;;;5.03;;
38859;SDS011;24609;48.316;16.174;2022-07-29T05:54:35;6.38;;;5.30;;
38859;SDS011;24609;48.316;16.174;2022-07-29T05:57:01;7.93;;;6.00;;
38859;SDS011;24609;48.316;16.174;2022-07-29T05:59:27;6.78;;;5.05;;
38859;SDS011;24609;48.316;16.174;2022-07-29T06:01:54;5.72;;;4.93;;
38859;SDS011;24609;48.316;16.174;2022-07-29T06:04:19;5.32;;;4.78;;
38859;SDS011;24609;48.316;16.174;2022-07-29T06:06:45;7.28;;;5.03;;
38859;SDS011;24609;48.316;16.174;2022-07-29T06:09:11;7.72;;;5.32;;
38859;SDS011;24609;48.316;16.174;2022-07-29T06:11:37;5.88;;;5.30;;
38859;SDS011;24609;48.316;16.174;2022-07-29T06:14:02;5.90;;;5.20;;
38859;SDS011;24609;48.316;16.174;2022-07-29T06:16:28;5.85;;;5.40;;
38859;SDS011;24609;48.316;16.174;2022-07-29T06:18:54;7.30;;;6.55;;
38859;SDS011;24609;48.316;16.174;2022-07-29T06:21:20;10.52;;;6.05;;
38859;SDS011;24609;48.316;16.174;2022-07-29T06:23:45;7.20;;;5.88;;
38859;SDS011;24609;48.316;16.174;2022-07-29T06:26:11;5.82;;;5.13;;
38859;SDS011;24609;48.316;16.174;2022-07-29T06:28:37;7.13;;;5.72;;
38859;SDS011;24609;48.316;16.174;2022-07-29T06:31:02;10.55;;;5.75;;
38859;SDS011;24609;48.316;16.174;2022-07-29T06:33:28;6.72;;;5.30;;
38859;SDS011;24609;48.316;16.174;2022-07-29T06:35:54;7.40;;;5.05;;
38859;SDS011;24609;48.316;16.174;2022-07-29T06:38:20;6.88;;;5.55;;
38859;SDS011;24609;48.316;16.174;2022-07-29T06:40:46;6.53;;;5.80;;
38859;SDS011;24609;48.316;16.174;2022-07-29T06:43:37;6.50;;;5.65;;
38859;SDS011;24609;48.316;16.174;2022-07-29T06:46:07;8.25;;;6.18;;
38859;SDS011;24609;48.316;16.174;2022-07-29T06:48:35;5.85;;;5.25;;
38859;SDS011;24609;48.316;16.174;2022-07-29T06:51:01;6.47;;;5.70;;
38859;SDS011;24609;48.316;16.174;2022-07-29T06:53:29;5.90;;;5.20;;
38859;SDS011;24609;48.316;16.174;2022-07-29T06:55:56;6.32;;;5.72;;
38859;SDS011;24609;48.316;16.174;2022-07-29T06:58:26;8.50;;;5.97;;
38859;SDS011;24609;48.316;16.174;2022-07-29T07:00:53;5.80;;;5.25;;
38859;SDS011;24609;48.316;16.174;2022-07-29T07:03:19;7.70;;;6.78;;
38859;SDS011;24609;48.316;16.174;2022-07-29T07:05:45;10.02;;;5.65;;
38859;SDS011;24609;48.316;16.174;2022-07-29T07:08:11;5.82;;;5.32;;
38859;SDS011;24609;48.316;16.174;2022-07-29T07:10:38;12.38;;;5.90;;
38859;SDS011;24609;48.316;16.174;2022-07-29T07:13:04;8.23;;;5.75;;
38859;SDS011;24609;48.316;16.174;2022-07-29T07:15:30;5.70;;;4.95;;
38859;SDS011;24609;48.316;16.174;2022-07-29T07:17:56;10.20;;;5.22;;
38859;SDS011;24609;48.316;16.174;2022-07-29T07:20:25;5.95;;;5.15;;
38859;SDS011;24609;48.316;16.174;2022-07-29T07:22:50;5.25;;;4.75;;
38859;SDS011;24609;48.316;16.174;2022-07-29T07:25:16;7.65;;;5.30;;
38859;SDS011;24609;48.316;16.174;2022-07-29T07:27:42;8.52;;;5.70;;
38859;SDS011;24609;48.316;16.174;2022-07-29T07:30:11;9.60;;;6.00;;
38859;SDS011;24609;48.316;16.174;2022-07-29T07:32:37;8.30;;;6.13;;
38859;SDS011;24609;48.316;16.174;2022-07-29T07:35:03;6.97;;;5.65;;
38859;SDS011;24609;48.316;16.174;2022-07-29T07:37:31;7.07;;;5.88;;
38859;SDS011;24609;48.316;16.174;2022-07-29T07:39:57;5.72;;;5.20;;
38859;SDS011;24609;48.316;16.174;2022-07-29T07:42:23;9.88;;;6.18;;
38859;SDS011;24609;48.316;16.174;2022-07-29T07:44:49;6.60;;;5.72;;
38859;SDS011;24609;48.316;16.174;2022-07-29T07:47:15;5.15;;;4.65;;
38859;SDS011;24609;48.316;16.174;2022-07-29T07:49:45;6.32;;;5.28;;
38859;SDS011;24609;48.316;16.174;2022-07-29T07:52:11;7.10;;;5.32;;
38859;SDS011;24609;48.316;16.174;2022-07-29T07:54:37;7.25;;;5.45;;
38859;SDS011;24609;48.316;16.174;2022-07-29T07:57:03;5.55;;;4.93;;
38859;SDS011;24609;48.316;16.174;2022-07-29T07:59:29;6.97;;;5.70;;
38859;SDS011;24609;48.316;16.174;2022-07-29T08:01:54;5.90;;;4.90;;
38859;SDS011;24609;48.316;16.174;2022-07-29T08:04:20;7.20;;;5.03;;
38859;SDS011;24609;48.316;16.174;2022-07-29T08:06:46;7.65;;;6.15;;
38859;SDS011;24609;48.316;16.174;2022-07-29T08:09:11;6.70;;;5.90;;
38859;SDS011;24609;48.316;16.174;2022-07-29T08:11:37;6.75;;;6.00;;
38859;SDS011;24609;48.316;16.174;2022-07-29T08:14:03;7.68;;;6.85;;
38859;SDS011;24609;48.316;16.174;2022-07-29T08:16:29;8.15;;;5.65;;
38859;SDS011;24609;48.316;16.174;2022-07-29T08:18:54;6.15;;;5.57;;
38859;SDS011;24609;48.316;16.174;2022-07-29T08:21:22;8.05;;;7.30;;
38859;SDS011;24609;48.316;16.174;2022-07-29T08:23:49;6.85;;;6.10;;
38859;SDS011;24609;48.316;16.174;2022-07-29T08:26:17;5.45;;;4.95;;
38859;SDS011;24609;48.316;16.174;2022-07-29T08:28:47;7.10;;;5.60;;
38859;SDS011;24609;48.316;16.174;2022-07-29T08:31:16;7.00;;;6.10;;
38859;SDS011;24609;48.316;16.174;2022-07-29T08:33:43;9.70;;;5.18;;
38859;SDS011;24609;48.316;16.174;2022-07-29T08:36:08;5.60;;;5.10;;
38859;SDS011;24609;48.316;16.174;2022-07-29T08:38:34;6.50;;;5.65;;
38859;SDS011;24609;48.316;16.174;2022-07-29T08:41:00;8.23;;;5.68;;
38859;SDS011;24609;48.316;16.174;2022-07-29T08:43:27;5.78;;;4.70;;
38859;SDS011;24609;48.316;16.174;2022-07-29T08:45:54;5.60;;;4.60;;
38859;SDS011;24609;48.316;16.174;2022-07-29T08:48:20;7.05;;;4.00;;
38859;SDS011;24609;48.316;16.174;2022-07-29T08:50:48;6.03;;;5.28;;
38859;SDS011;24609;48.316;16.174;2022-07-29T08:53:17;5.88;;;5.07;;
38859;SDS011;24609;48.316;16.174;2022-07-29T08:55:43;8.93;;;5.75;;
38859;SDS011;24609;48.316;16.174;2022-07-29T08:58:11;8.95;;;5.90;;
38859;SDS011;24609;48.316;16.174;2022-07-29T09:00:43;7.72;;;5.53;;
38859;SDS011;24609;48.316;16.174;2022-07-29T09:03:14;6.53;;;5.93;;
38859;SDS011;24609;48.316;16.174;2022-07-29T09:05:43;6.25;;;5.30;;
38859;SDS011;24609;48.316;16.174;2022-07-29T09:08:12;6.50;;;5.43;;
38859;SDS011;24609;48.316;16.174;2022-07-29T09:10:39;5.97;;;5.37;;
38859;SDS011;24609;48.316;16.174;2022-07-29T09:13:04;7.50;;;5.05;;
38859;SDS011;24609;48.316;16.174;2022-07-29T09:15:30;6.65;;;4.90;;
38859;SDS011;24609;48.316;16.174;2022-07-29T09:17:56;6.15;;;5.35;;
38859;SDS011;24609;48.316;16.174;2022-07-29T09:20:24;4.97;;;4.47;;
38859;SDS011;24609;48.316;16.174;2022-07-29T09:22:50;6.63;;;5.30;;
38859;SDS011;24609;48.316;16.174;2022-07-29T09:25:37;7.82;;;5.53;;
38859;SDS011;24609;48.316;16.174;2022-07-29T09:28:07;5.57;;;4.85;;
38859;SDS011;24609;48.316;16.174;2022-07-29T09:30:34;8.55;;;4.43;;
38859;SDS011;24609;48.316;16.174;2022-07-29T09:33:02;6.38;;;5.63;;
38859;SDS011;24609;48.316;16.174;2022-07-29T09:35:28;8.05;;;5.80;;
38859;SDS011;24609;48.316;16.174;2022-07-29T09:37:55;6.90;;;5.75;;
38859;SDS011;24609;48.316;16.174;2022-07-29T09:42:51;9.23;;;5.53;;
38859;SDS011;24609;48.316;16.174;2022-07-29T09:45:32;8.45;;;5.88;;
38859;SDS011;24609;48.316;16.174;2022-07-29T09:47:59;6.63;;;5.43;;
38859;SDS011;24609;48.316;16.174;2022-07-29T09:50:38;5.65;;;5.10;;
38859;SDS011;24609;48.316;16.174;2022-07-29T09:53:05;9.27;;;5.72;;
38859;SDS011;24609;48.316;16.174;2022-07-29T09:55:31;5.78;;;5.20;;
38859;SDS011;24609;48.316;16.174;2022-07-29T09:58:19;6.57;;;5.80;;
38859;SDS011;24609;48.316;16.174;2022-07-29T10:00:47;5.80;;;5.20;;
38859;SDS011;24609;48.316;16.174;2022-07-29T10:03:14;7.82;;;5.78;;
38859;SDS011;24609;48.316;16.174;2022-07-29T10:05:40;8.93;;;6.18;;
38859;SDS011;24609;48.316;16.174;2022-07-29T10:08:07;7.90;;;6.35;;
38859;SDS011;24609;48.316;16.174;2022-07-29T10:10:34;5.60;;;5.05;;
38859;SDS011;24609;48.316;16.174;2022-07-29T10:13:06;5.88;;;5.28;;
38859;SDS011;24609;48.316;16.174;2022-07-29T10:15:35;6.30;;;5.70;;
38859;SDS011;24609;48.316;16.174;2022-07-29T10:18:03;6.10;;;5.60;;
38859;SDS011;24609;48.316;16.174;2022-07-29T10:20:29;5.80;;;5.30;;
38859;SDS011;24609;48.316;16.174;2022-07-29T10:22:55;5.68;;;5.28;;
38859;SDS011;24609;48.316;16.174;2022-07-29T10:25:21;5.32;;;4.93;;
38859;SDS011;24609;48.316;16.174;2022-07-29T10:27:49;8.02;;;5.43;;
38859;SDS011;24609;48.316;16.174;2022-07-29T10:30:18;6.38;;;5.55;;
38859;SDS011;24609;48.316;16.174;2022-07-29T10:41:36;8.60;;;6.32;;
38859;SDS011;24609;48.316;16.174;2022-07-29T10:44:24;8.40;;;5.07;;
38859;SDS011;24609;48.316;16.174;2022-07-29T10:46:52;7.25;;;5.65;;
38859;SDS011;24609;48.316;16.174;2022-07-29T10:49:25;7.03;;;4.95;;
38859;SDS011;24609;48.316;16.174;2022-07-29T10:57:24;5.65;;;5.15;;
38859;SDS011;24609;48.316;16.174;2022-07-29T11:07:25;5.68;;;5.20;;
38859;SDS011;24609;48.316;16.174;2022-07-29T11:15:01;5.68;;;5.18;;
38859;SDS011;24609;48.316;16.174;2022-07-29T11:17:27;5.65;;;5.15;;
38859;SDS011;24609;48.316;16.174;2022-07-29T11:22:57;7.95;;;4.75;;
38859;SDS011;24609;48.316;16.174;2022-07-29T11:25:23;5.55;;;4.93;;
38859;SDS011;24609;48.316;16.174;2022-07-29T11:27:50;5.38;;;4.88;;
38859;SDS011;24609;48.316;16.174;2022-07-29T11:30:17;5.93;;;5.07;;
38859;SDS011;24609;48.316;16.174;2022-07-29T11:32:43;5.10;;;4.28;;
38859;SDS011;24609;48.316;16.174;2022-07-29T11:35:10;5.53;;;4.55;;
38859;SDS011;24609;48.316;16.174;2022-07-29T11:37:44;4.78;;;4.10;;
38859;SDS011;24609;48.316;16.174;2022-07-29T11:40:29;5.22;;;4.47;;
38859;SDS011;24609;48.316;16.174;2022-07-29T11:42:54;7.22;;;4.50;;
38859;SDS011;24609;48.316;16.174;2022-07-29T11:45:21;5.40;;;4.90;;
38859;SDS011;24609;48.316;16.174;2022-07-29T11:50:37;4.90;;;4.40;;
38859;SDS011;24609;48.316;16.174;2022-07-29T11:53:03;5.13;;;4.50;;
38859;SDS011;24609;48.316;16.174;2022-07-29T11:55:37;4.70;;;4.30;;
38859;SDS011;24609;48.316;16.174;2022-07-29T11:58:06;6.88;;;4.70;;
38859;SDS011;24609;48.316;16.174;2022-07-29T12:00:37;4.70;;;4.30;;
38859;SDS011;24609;48.316;16.174;2022-07-29T12:03:09;5.70;;;4.43;;
38859;SDS011;24609;48.316;16.174;2022-07-29T12:05:39;6.32;;;4.28;;
38859;SDS011;24609;48.316;16.174;2022-07-29T12:08:08;4.95;;;4.47;;
38859;SDS011;24609;48.316;16.174;2022-07-29T12:10:35;5.32;;;4.88;;
38859;SDS011;24609;48.316;16.174;2022-07-29T12:13:01;5.03;;;4.63;;
38859;SDS011;24609;48.316;16.174;2022-07-29T12:15:27;4.60;;;4.18;;
38859;SDS011;24609;48.316;16.174;2022-07-29T12:17:53;5.15;;;4.22;;
38859;SDS011;24609;48.316;16.174;2022-07-29T12:20:23;5.57;;;4.53;;
38859;SDS011;24609;48.316;16.174;2022-07-29T12:22:53;5.68;;;4.60;;
38859;SDS011;24609;48.316;16.174;2022-07-29T12:25:21;7.40;;;4.38;;
38859;SDS011;24609;48.316;16.174;2022-07-29T12:27:57;4.40;;;4.00;;
38859;SDS011;24609;48.316;16.174;2022-07-29T12:30:33;4.20;;;3.80;;
38859;SDS011;24609;48.316;16.174;2022-07-29T12:33:15;6.40;;;4.25;;
38859;SDS011;24609;48.316;16.174;2022-07-29T12:38:11;5.60;;;4.38;;
38859;SDS011;24609;48.316;16.174;2022-07-29T12:40:37;7.38;;;4.68;;
38859;SDS011;24609;48.316;16.174;2022-07-29T12:43:11;6.25;;;4.57;;
38859;SDS011;24609;48.316;16.174;2022-07-29T12:45:42;5.78;;;4.57;;
38859;SDS011;24609;48.316;16.174;2022-07-29T12:48:09;6.28;;;4.70;;
38859;SDS011;24609;48.316;16.174;2022-07-29T12:50:36;4.70;;;4.20;;
38859;SDS011;24609;48.316;16.174;2022-07-29T12:53:17;6.70;;;4.63;;
38859;SDS011;24609;48.316;16.174;2022-07-29T12:55:44;5.82;;;4.55;;
38859;SDS011;24609;48.316;16.174;2022-07-29T12:58:26;4.45;;;4.05;;
38859;SDS011;24609;48.316;16.174;2022-07-29T13:01:03;4.65;;;4.25;;
38859;SDS011;24609;48.316;16.174;2022-07-29T13:11:50;5.50;;;4.28;;
38859;SDS011;24609;48.316;16.174;2022-07-29T13:17:03;5.70;;;4.95;;
38859;SDS011;24609;48.316;16.174;2022-07-29T13:19:37;5.43;;;4.82;;
38859;SDS011;24609;48.316;16.174;2022-07-29T13:22:12;7.03;;;5.20;;
38859;SDS011;24609;48.316;16.174;2022-07-29T13:24:51;6.78;;;4.88;;
38859;SDS011;24609;48.316;16.174;2022-07-29T13:27:21;6.63;;;5.93;;
38859;SDS011;24609;48.316;16.174;2022-07-29T13:29:48;6.22;;;5.53;;
38859;SDS011;24609;48.316;16.174;2022-07-29T13:32:17;6.82;;;6.05;;
38859;SDS011;24609;48.316;16.174;2022-07-29T13:34:43;6.78;;;6.07;;
38859;SDS011;24609;48.316;16.174;2022-07-29T13:37:08;6.13;;;5.35;;
38859;SDS011;24609;48.316;16.174;2022-07-29T13:39:34;7.45;;;5.80;;
38859;SDS011;24609;48.316;16.174;2022-07-29T13:42:00;6.47;;;5.88;;
38859;SDS011;24609;48.316;16.174;2022-07-29T13:44:26;8.32;;;5.90;;
38859;SDS011;24609;48.316;16.174;2022-07-29T13:46:51;6.68;;;6.07;;
38859;SDS011;24609;48.316;16.174;2022-07-29T13:49:17;10.43;;;6.38;;
38859;SDS011;24609;48.316;16.174;2022-07-29T13:51:43;7.50;;;6.80;;
38859;SDS011;24609;48.316;16.174;2022-07-29T13:54:08;8.38;;;7.10;;
38859;SDS011;24609;48.316;16.174;2022-07-29T13:56:34;7.78;;;7.07;;
38859;SDS011;24609;48.316;16.174;2022-07-29T13:59:00;11.45;;;7.63;;
38859;SDS011;24609;48.316;16.174;2022-07-29T14:01:25;8.27;;;7.32;;
38859;SDS011;24609;48.316;16.174;2022-07-29T14:03:52;9.63;;;7.70;;
38859;SDS011;24609;48.316;16.174;2022-07-29T14:06:18;9.88;;;8.35;;
38859;SDS011;24609;48.316;16.174;2022-07-29T14:08:44;10.88;;;8.82;;
38859;SDS011;24609;48.316;16.174;2022-07-29T14:11:09;12.55;;;9.02;;
38859;SDS011;24609;48.316;16.174;2022-07-29T14:13:35;9.02;;;8.13;;
38859;SDS011;24609;48.316;16.174;2022-07-29T14:16:01;9.32;;;8.43;;
38859;SDS011;24609;48.316;16.174;2022-07-29T14:18:26;9.27;;;8.38;;
38859;SDS011;24609;48.316;16.174;2022-07-29T14:20:52;9.23;;;8.18;;
38859;SDS011;24609;48.316;16.174;2022-07-29T14:23:18;10.20;;;8.30;;
38859;SDS011;24609;48.316;16.174;2022-07-29T14:25:43;9.93;;;8.98;;
38859;SDS011;24609;48.316;16.174;2022-07-29T14:28:09;9.40;;;8.50;;
38859;SDS011;24609;48.316;16.174;2022-07-29T14:30:35;10.07;;;8.57;;
38859;SDS011;24609;48.316;16.174;2022-07-29T14:33:00;9.38;;;8.48;;
38859;SDS011;24609;48.316;16.174;2022-07-29T14:35:26;9.60;;;8.70;;
38859;SDS011;24609;48.316;16.174;2022-07-29T14:37:52;10.38;;;8.15;;
38859;SDS011;24609;48.316;16.174;2022-07-29T14:40:18;9.68;;;8.68;;
38859;SDS011;24609;48.316;16.174;2022-07-29T14:42:44;10.80;;;9.68;;
38859;SDS011;24609;48.316;16.174;2022-07-29T14:45:09;11.40;;;10.40;;
38859;SDS011;24609;48.316;16.174;2022-07-29T14:47:36;10.00;;;9.05;;
38859;SDS011;24609;48.316;16.174;2022-07-29T14:50:03;10.35;;;9.45;;
38859;SDS011;24609;48.316;16.174;2022-07-29T14:52:30;13.07;;;11.32;;
38859;SDS011;24609;48.316;16.174;2022-07-29T14:54:55;11.55;;;10.40;;
38859;SDS011;24609;48.316;16.174;2022-07-29T14:57:21;10.27;;;8.15;;
38859;SDS011;24609;48.316;16.174;2022-07-29T14:59:47;8.93;;;8.02;;
38859;SDS011;24609;48.316;16.174;2022-07-29T15:02:12;8.23;;;7.53;;
38859;SDS011;24609;48.316;16.174;2022-07-29T15:04:38;8.45;;;7.72;;
38859;SDS011;24609;48.316;16.174;2022-07-29T15:07:04;8.65;;;7.85;;
38859;SDS011;24609;48.316;16.174;2022-07-29T15:09:30;9.70;;;8.80;;
38859;SDS011;24609;48.316;16.174;2022-07-29T15:11:55;9.70;;;8.80;;
38859;SDS011;24609;48.316;16.174;2022-07-29T15:14:21;10.93;;;8.98;;
38859;SDS011;24609;48.316;16.174;2022-07-29T15:16:47;10.15;;;9.02;;
38859;SDS011;24609;48.316;16.174;2022-07-29T15:19:12;9.85;;;8.95;;
38859;SDS011;24609;48.316;16.174;2022-07-29T15:21:38;9.15;;;8.35;;
38859;SDS011;24609;48.316;16.174;2022-07-29T15:24:04;9.55;;;8.48;;
38859;SDS011;24609;48.316;16.174;2022-07-29T15:26:32;9.98;;;8.38;;
38859;SDS011;24609;48.316;16.174;2022-07-29T15:28:57;9.80;;;8.90;;
38859;SDS011;24609;48.316;16.174;2022-07-29T15:31:24;10.48;;;8.50;;
38859;SDS011;24609;48.316;16.174;2022-07-29T15:33:49;10.18;;;9.13;;
38859;SDS011;24609;48.316;16.174;2022-07-29T15:36:15;9.85;;;8.98;;
38859;SDS011;24609;48.316;16.174;2022-07-29T15:38:41;8.98;;;8.07;;
38859;SDS011;24609;48.316;16.174;2022-07-29T15:41:06;10.38;;;9.35;;
38859;SDS011;24609;48.316;16.174;2022-07-29T15:43:33;9.95;;;8.93;;
38859;SDS011;24609;48.316;16.174;2022-07-29T15:46:00;10.10;;;9.20;;
38859;SDS011;24609;48.316;16.174;2022-07-29T15:48:46;10.60;;;9.70;;
38859;SDS011;24609;48.316;16.174;2022-07-29T15:51:12;10.73;;;9.70;;
38859;SDS011;24609;48.316;16.174;2022-07-29T15:53:37;11.27;;;10.38;;
38859;SDS011;24609;48.316;16.174;2022-07-29T15:56:03;9.95;;;9.15;;